Time;durP1;ratioP1;P1;durP2;ratioP2;P2;SDS_P1;SDS_P2;PMS_P1;PMS_P2;Temp;Humidity;BMP_temperature;BMP_pressure;BME280_temperature;BME280_humidity;BME280_pressure;Samples;Min_cycle;Max_cycle;Signal;HPM_P1;HPM_P2
2022/05/04 00:01:04;;;;;;;4.10;3.75;;;;;;;12.21;71.54;98563.13;4105120;28;20246;-54
2022/05/04 00:03:06;;;;;;;5.70;3.75;;;;;;;12.18;71.56;98560.06;4108834;28;20226;-54
2022/05/04 00:05:08;;;;;;;3.63;3.33;;;;;;;12.12;71.25;98561.91;4117149;28;20207;-55
2022/05/04 00:07:10;;;;;;;4.25;3.95;;;;;;;12.11;71.42;98553.97;4104403;28;20275;-54
2022/05/04 00:09:12;;;;;;;4.10;3.80;;;;;;;12.07;71.64;98559.16;4101006;28;20820;-53
2022/05/04 00:11:13;;;;;;;4.97;4.53;;;;;;;12.08;71.02;98554.47;4104853;28;20214;-55
2022/05/04 00:13:15;;;;;;;3.70;3.40;;;;;;;12.08;70.96;98560.78;4102593;28;20206;-54
2022/05/04 00:15:17;;;;;;;3.55;3.35;;;;;;;12.08;71.12;98549.81;4107771;28;20262;-55
2022/05/04 00:17:18;;;;;;;3.17;2.90;;;;;;;12.07;71.35;98552.81;4106477;28;20210;-54
2022/05/04 00:19:20;;;;;;;4.68;4.28;;;;;;;12.07;71.88;98552.81;4109794;28;20217;-53
2022/05/04 00:21:22;;;;;;;4.25;3.85;;;;;;;12.05;71.20;98555.81;4103551;28;20237;-55
2022/05/04 00:23:25;;;;;;;2.97;2.78;;;;;;;12.01;71.50;98554.69;4119811;28;20210;-55
2022/05/04 00:25:27;;;;;;;4.50;4.10;;;;;;;12.01;71.33;98560.19;4118308;28;20233;-55
2022/05/04 00:27:28;;;;;;;3.20;3.00;;;;;;;11.95;71.19;98561.19;4105502;28;20622;-55
2022/05/04 00:29:30;;;;;;;3.42;3.13;;;;;;;11.93;71.23;98554.31;4108956;28;21953;-54
2022/05/04 00:31:32;;;;;;;3.72;3.42;;;;;;;11.89;71.64;98556.75;4105716;28;20211;-55
2022/05/04 00:33:33;;;;;;;4.43;3.90;;;;;;;11.81;71.49;98548.97;4102437;28;20302;-54
2022/05/04 00:35:35;;;;;;;3.20;3.00;;;;;;;11.76;71.78;98551.66;4103204;28;20294;-54
2022/05/04 00:37:37;;;;;;;3.65;3.35;;;;;;;11.72;72.00;98556.00;4101450;28;20214;-54
2022/05/04 00:39:39;;;;;;;4.88;4.25;;;;;;;11.68;71.52;98551.28;4103199;28;20238;-54
2022/05/04 00:41:40;;;;;;;4.65;4.25;;;;;;;11.61;71.82;98547.91;4119857;28;20210;-54
2022/05/04 00:43:50;;;;;;;3.92;3.63;;;;;;;11.57;71.81;98542.06;4102379;28;20211;-54
2022/05/04 00:45:52;;;;;;;3.45;3.15;;;;;;;11.49;72.07;98550.75;4118250;28;20222;-54
2022/05/04 00:47:54;;;;;;;3.22;3.03;;;;;;;11.51;71.78;98553.25;4107066;28;20577;-55
2022/05/04 00:49:56;;;;;;;3.88;3.42;;;;;;;11.50;71.65;98555.16;4103746;28;20223;-54
2022/05/04 00:51:58;;;;;;;3.78;3.47;;;;;;;11.48;71.55;98560.06;4103029;28;20207;-55
2022/05/04 00:54:00;;;;;;;3.33;3.13;;;;;;;11.51;71.36;98551.31;4105125;28;20233;-54
2022/05/04 00:56:02;;;;;;;4.13;3.72;;;;;;;11.49;71.74;98550.75;4104021;28;20230;-56
2022/05/04 01:00:25;;;;;;;3.95;3.65;;;;;;;11.34;71.52;98545.09;4102198;28;20245;-55
2022/05/04 01:02:27;;;;;;;3.65;3.45;;;;;;;11.29;71.38;98550.50;4104450;28;21003;-55
2022/05/04 01:04:32;;;;;;;3.75;3.50;;;;;;;11.27;71.55;98549.09;4108370;28;20278;-55
2022/05/04 01:06:34;;;;;;;3.55;3.25;;;;;;;11.22;71.40;98549.84;4104332;28;20226;-54
2022/05/04 01:08:36;;;;;;;4.03;3.72;;;;;;;11.16;71.63;98550.84;4104351;28;20860;-55
2022/05/04 01:10:37;;;;;;;3.30;3.00;;;;;;;11.14;71.34;98546.72;4100644;28;20212;-55
2022/05/04 01:12:52;;;;;;;2.70;2.50;;;;;;;11.12;71.48;98538.75;4107839;28;20211;-54
2022/05/04 01:14:54;;;;;;;2.65;2.38;;;;;;;11.04;71.73;98546.59;4119563;28;20206;-55
2022/05/04 01:16:56;;;;;;;4.30;3.90;;;;;;;10.95;71.58;98546.19;4108357;28;20313;-54
2022/05/04 01:18:58;;;;;;;4.32;4.03;;;;;;;10.91;71.87;98553.22;4108487;28;20234;-55
2022/05/04 01:21:00;;;;;;;3.60;3.30;;;;;;;10.88;71.57;98546.63;4104787;28;20209;-55
2022/05/04 01:23:01;;;;;;;6.20;3.40;;;;;;;10.87;72.21;98555.91;4103271;28;20215;-56
2022/05/04 01:25:04;;;;;;;3.88;3.55;;;;;;;10.86;72.18;98560.53;4108472;28;20655;-55
2022/05/04 01:27:11;;;;;;;3.88;3.58;;;;;;;10.83;72.02;98561.06;4103859;28;20230;-55
2022/05/04 01:29:14;;;;;;;3.35;3.05;;;;;;;10.82;71.78;98554.75;4105395;28;20749;-55
2022/05/04 01:31:15;;;;;;;3.72;3.42;;;;;;;10.79;71.88;98555.22;4116977;28;20198;-54
2022/05/04 01:33:17;;;;;;;3.53;3.22;;;;;;;10.76;71.89;98554.91;4103841;28;20676;-53
2022/05/04 01:35:19;;;;;;;3.72;3.42;;;;;;;10.75;71.65;98560.66;4104972;28;20214;-55
2022/05/04 01:37:21;;;;;;;4.20;3.80;;;;;;;10.74;71.83;98562.53;4109142;28;20297;-54
2022/05/04 01:39:22;;;;;;;3.75;3.42;;;;;;;10.72;71.72;98563.88;4104734;28;20218;-55
2022/05/04 01:43:44;;;;;;;3.92;3.63;;;;;;;10.73;71.81;98563.63;4101805;28;20679;-55
2022/05/04 01:45:46;;;;;;;3.80;3.50;;;;;;;10.76;71.33;98559.56;4108310;28;20314;-55
2022/05/04 01:47:48;;;;;;;3.75;3.45;;;;;;;10.74;71.62;98565.28;4107009;28;20218;-55
2022/05/04 01:49:50;;;;;;;4.40;3.95;;;;;;;10.73;71.58;98562.78;4104378;28;20269;-55
2022/05/04 01:51:53;;;;;;;3.90;3.60;;;;;;;10.74;71.68;98561.72;4105519;28;20207;-55
2022/05/04 01:53:55;;;;;;;3.70;3.40;;;;;;;10.71;71.45;98567.69;4103542;28;20697;-54
2022/05/04 01:55:57;;;;;;;4.00;3.70;;;;;;;10.67;71.90;98566.53;4103809;28;20321;-55
2022/05/04 01:57:59;;;;;;;3.50;3.20;;;;;;;10.62;71.57;98558.25;4104404;28;20246;-55
2022/05/04 02:00:01;;;;;;;4.03;3.72;;;;;;;10.63;71.40;98558.00;4103665;28;20235;-54
2022/05/04 02:02:06;;;;;;;3.85;3.55;;;;;;;10.62;71.55;98559.06;4106860;28;20620;-54
2022/05/04 02:04:08;;;;;;;3.72;3.42;;;;;;;10.62;71.44;98558.25;4108214;28;20692;-54
2022/05/04 02:06:10;;;;;;;3.53;3.22;;;;;;;10.58;71.43;98557.91;4103469;28;20222;-54
2022/05/04 02:08:12;;;;;;;3.70;3.40;;;;;;;10.56;71.37;98559.22;4101436;28;20237;-57
2022/05/04 02:10:14;;;;;;;2.92;2.72;;;;;;;10.48;71.59;98554.19;4115734;28;20210;-55
2022/05/04 02:12:15;;;;;;;3.63;3.35;;;;;;;10.46;71.56;98550.84;4103050;28;20291;-54
2022/05/04 02:14:19;;;;;;;4.25;3.95;;;;;;;10.43;71.35;98559.56;4119378;28;20206;-54
2022/05/04 02:16:21;;;;;;;4.15;3.75;;;;;;;10.40;71.87;98557.31;4091381;28;21752;-55
2022/05/04 02:18:23;;;;;;;3.65;3.35;;;;;;;10.34;71.42;98556.41;4107759;28;20656;-54
2022/05/04 02:20:25;;;;;;;5.32;3.22;;;;;;;10.31;71.62;98558.81;4110123;28;20215;-55
2022/05/04 02:22:26;;;;;;;3.85;3.28;;;;;;;10.29;71.74;98558.22;4118452;28;20198;-57
2022/05/04 02:24:28;;;;;;;3.45;3.25;;;;;;;10.23;71.92;98554.59;4116460;28;20207;-56
2022/05/04 02:26:30;;;;;;;3.33;3.03;;;;;;;10.18;71.43;98557.22;4101939;28;20732;-54
2022/05/04 02:28:32;;;;;;;4.28;3.88;;;;;;;10.17;71.42;98554.72;4119941;28;20581;-56
2022/05/04 02:30:33;;;;;;;3.63;3.33;;;;;;;10.16;71.73;98556.63;4103092;28;20653;-56
2022/05/04 02:32:35;;;;;;;3.33;3.13;;;;;;;10.13;71.68;98559.03;4116303;28;20225;-56
2022/05/04 02:37:54;;;;;;;3.83;3.53;;;;;;;10.05;71.80;98552.06;4118911;28;20250;-56
2022/05/04 02:39:19;;;;;;;3.25;3.00;;;;;;;10.01;71.75;98555.50;4103331;28;20212;-56
2022/05/04 02:41:21;;;;;;;3.33;3.03;;;;;;;10.01;71.74;98550.03;4110904;28;20238;-55
2022/05/04 02:43:22;;;;;;;3.15;2.88;;;;;;;9.99;71.52;98552.16;4103406;28;20211;-55
2022/05/04 02:45:24;;;;;;;3.97;3.67;;;;;;;9.99;71.76;98557.63;4088645;28;20238;-55
2022/05/04 02:47:28;;;;;;;3.20;2.90;;;;;;;9.93;71.32;98559.47;4101370;28;20205;-55
2022/05/04 02:49:29;;;;;;;3.25;2.92;;;;;;;9.87;71.46;98554.16;4099651;28;20210;-57
2022/05/04 02:51:32;;;;;;;4.57;4.18;;;;;;;9.85;71.61;98561.75;4114228;28;20787;-55
2022/05/04 02:53:34;;;;;;;3.42;3.15;;;;;;;9.80;71.55;98558.91;4115325;28;20214;-58
2022/05/04 02:55:36;;;;;;;4.20;3.83;;;;;;;9.73;71.20;98552.75;4098940;28;20791;-57
2022/05/04 02:57:38;;;;;;;4.28;3.35;;;;;;;9.72;71.33;98562.03;4116227;28;20240;-57
2022/05/04 02:59:40;;;;;;;3.67;3.38;;;;;;;9.64;71.64;98559.69;4103002;28;20214;-57
2022/05/04 03:04:08;;;;;;;2.75;2.55;;;;;;;9.65;71.75;98556.72;4102691;28;20270;-56
2022/05/04 03:06:10;;;;;;;3.90;3.45;;;;;;;9.66;71.59;98546.63;4105357;28;20706;-56
2022/05/04 03:08:11;;;;;;;3.60;3.30;;;;;;;9.66;71.58;98552.06;4105675;28;21033;-56
2022/05/04 03:10:14;;;;;;;3.53;3.22;;;;;;;9.58;71.33;98556.03;4103224;28;20313;-55
2022/05/04 03:12:18;;;;;;;3.65;3.35;;;;;;;9.58;71.63;98555.19;4104519;28;20211;-54
2022/05/04 03:14:21;;;;;;;3.65;3.38;;;;;;;9.56;71.71;98563.63;4105786;28;20574;-56
2022/05/04 03:16:23;;;;;;;3.72;3.42;;;;;;;9.51;71.56;98559.97;4105056;28;20226;-56
2022/05/04 03:18:25;;;;;;;4.05;3.75;;;;;;;9.44;71.92;98559.28;4120184;28;20217;-56
2022/05/04 03:20:26;;;;;;;3.88;3.58;;;;;;;9.37;71.87;98559.44;4102623;28;20865;-56
2022/05/04 03:22:29;;;;;;;2.70;2.50;;;;;;;9.29;71.60;98553.50;4103661;28;20210;-56
2022/05/04 03:24:32;;;;;;;3.72;3.42;;;;;;;9.27;71.77;98559.19;4108555;28;20265;-56
2022/05/04 03:26:33;;;;;;;3.42;3.13;;;;;;;9.27;71.78;98558.34;4102925;28;20305;-56
2022/05/04 03:28:35;;;;;;;3.65;3.35;;;;;;;9.27;71.86;98550.16;4109562;28;20211;-57
2022/05/04 03:30:37;;;;;;;3.35;3.05;;;;;;;9.25;71.90;98555.06;4109642;28;20736;-55
2022/05/04 03:32:38;;;;;;;3.63;3.38;;;;;;;9.23;71.90;98558.00;4111078;28;20207;-57
2022/05/04 03:34:40;;;;;;;4.20;3.80;;;;;;;9.19;71.70;98562.31;4116952;28;20214;-55
2022/05/04 03:36:42;;;;;;;3.40;3.13;;;;;;;9.13;72.06;98557.81;4101749;28;20258;-55
2022/05/04 03:38:47;;;;;;;4.13;3.22;;;;;;;9.16;72.22;98559.22;4119019;28;20211;-56
2022/05/04 03:40:49;;;;;;;3.28;2.97;;;;;;;9.16;72.30;98567.41;4104175;28;20214;-56
2022/05/04 03:42:52;;;;;;;3.95;3.55;;;;;;;9.20;71.82;98563.13;4106431;28;20215;-56
2022/05/04 03:44:54;;;;;;;4.10;3.80;;;;;;;9.22;72.03;98561.00;4104727;28;20214;-57
2022/05/04 03:46:56;;;;;;;3.45;3.15;;;;;;;9.22;71.19;98559.09;4103201;28;20598;-57
2022/05/04 03:48:58;;;;;;;3.10;2.90;;;;;;;9.20;71.81;98568.59;4119645;28;20338;-57
2022/05/04 03:51:00;;;;;;;3.65;3.35;;;;;;;9.16;71.85;98565.50;4104674;28;20665;-56
2022/05/04 03:53:02;;;;;;;4.03;3.72;;;;;;;9.13;72.16;98573.34;4105377;28;20238;-57
2022/05/04 03:55:04;;;;;;;3.80;3.35;;;;;;;9.06;71.49;98578.09;4107133;28;20213;-55
2022/05/04 03:57:06;;;;;;;3.50;3.20;;;;;;;8.97;71.79;98574.94;4103032;28;20266;-55
2022/05/04 03:59:08;;;;;;;3.80;3.60;;;;;;;8.93;72.51;98578.34;4092887;28;20235;-57
2022/05/04 04:01:11;;;;;;;4.28;3.88;;;;;;;8.90;72.37;98574.19;4103104;28;20235;-57
2022/05/04 04:03:12;;;;;;;3.33;3.13;;;;;;;8.87;72.09;98579.28;4117352;28;20257;-57
2022/05/04 04:05:15;;;;;;;4.93;4.53;;;;;;;8.83;72.56;98570.75;4105937;28;20706;-57
2022/05/04 04:07:17;;;;;;;4.13;3.83;;;;;;;8.84;72.31;98575.16;4106145;28;20254;-58
2022/05/04 04:09:18;;;;;;;4.38;4.07;;;;;;;8.85;72.22;98575.97;4088309;28;20230;-58
2022/05/04 04:11:20;;;;;;;3.65;3.35;;;;;;;8.82;72.70;98571.00;4115515;28;20624;-56
2022/05/04 04:13:22;;;;;;;3.42;3.22;;;;;;;8.76;72.79;98574.69;4101309;28;20207;-56
2022/05/04 04:15:23;;;;;;;3.92;3.63;;;;;;;8.82;72.81;98573.75;4102008;28;20249;-56
2022/05/04 04:17:25;;;;;;;3.20;2.95;;;;;;;8.77;72.88;98568.16;4101396;28;20230;-58
2022/05/04 04:19:27;;;;;;;3.50;3.20;;;;;;;8.72;72.58;98570.75;4104188;28;20225;-58
2022/05/04 04:23:48;;;;;;;3.53;3.22;;;;;;;8.80;72.35;98575.84;4103199;28;20261;-58
2022/05/04 04:25:50;;;;;;;3.35;3.05;;;;;;;8.79;72.44;98572.31;4107226;28;20258;-57
2022/05/04 04:27:52;;;;;;;2.90;2.70;;;;;;;8.82;72.39;98581.94;4104559;28;20214;-57
2022/05/04 04:29:54;;;;;;;3.95;3.65;;;;;;;8.86;72.28;98583.09;4103332;28;20203;-57
2022/05/04 04:31:55;;;;;;;3.58;3.38;;;;;;;8.88;71.91;98586.44;4115851;28;20657;-57
2022/05/04 04:33:57;;;;;;;4.13;3.75;;;;;;;8.90;72.20;98584.28;4103297;28;20203;-55
2022/05/04 04:36:00;;;;;;;3.75;3.42;;;;;;;8.90;72.09;98584.28;4103094;28;20274;-57
2022/05/04 04:38:01;;;;;;;3.83;3.53;;;;;;;8.90;72.15;98589.75;4103747;28;20230;-57
2022/05/04 04:40:04;;;;;;;4.85;4.32;;;;;;;8.86;72.21;98592.13;4101578;28;20245;-57
2022/05/04 04:42:06;;;;;;;3.72;3.42;;;;;;;8.84;72.56;98590.69;4116416;28;20236;-57
2022/05/04 04:44:09;;;;;;;3.47;3.20;;;;;;;8.87;72.57;98595.66;4100874;28;21490;-56
2022/05/04 04:46:11;;;;;;;4.15;3.85;;;;;;;8.91;71.81;98591.41;4103024;28;20230;-57
2022/05/04 04:48:16;;;;;;;3.97;3.67;;;;;;;8.95;72.14;98589.88;4103391;28;20701;-56
2022/05/04 04:50:18;;;;;;;3.55;3.25;;;;;;;8.97;72.21;98591.31;4102651;28;20728;-56
2022/05/04 04:52:19;;;;;;;3.78;3.45;;;;;;;8.93;72.99;98592.84;4102583;28;20273;-56
2022/05/04 04:54:21;;;;;;;4.30;3.90;;;;;;;8.97;72.83;98593.19;4101747;28;20257;-57
2022/05/04 04:56:23;;;;;;;4.00;3.70;;;;;;;9.01;72.56;98594.38;4103787;28;20226;-56
2022/05/04 04:58:25;;;;;;;3.60;3.30;;;;;;;9.07;72.60;98590.66;4104057;28;20298;-56
2022/05/04 05:00:27;;;;;;;4.50;4.20;;;;;;;9.12;72.51;98588.06;4103526;28;20202;-56
2022/05/04 05:02:29;;;;;;;4.28;3.97;;;;;;;9.12;73.12;98590.78;4102757;28;21006;-57
2022/05/04 05:04:30;;;;;;;5.07;4.68;;;;;;;9.07;73.47;98596.13;4090628;28;20282;-56
2022/05/04 05:06:32;;;;;;;4.93;4.53;;;;;;;9.12;73.49;98593.53;4116456;28;20549;-56
2022/05/04 05:08:34;;;;;;;4.88;4.47;;;;;;;9.19;72.76;98592.34;4116742;28;20209;-57
2022/05/04 05:10:36;;;;;;;4.78;4.40;;;;;;;9.28;72.72;98588.16;4108928;28;20218;-55
2022/05/04 05:12:38;;;;;;;4.38;4.05;;;;;;;9.40;72.47;98590.88;4107060;28;20636;-56
2022/05/04 05:17:00;;;;;;;4.88;4.57;;;;;;;9.61;71.91;98598.44;4103830;28;20235;-56
2022/05/04 05:19:02;;;;;;;4.78;4.43;;;;;;;9.72;71.84;98589.34;4108980;28;20219;-56
2022/05/04 05:21:04;;;;;;;4.50;4.13;;;;;;;9.81;71.95;98593.38;4119509;28;20591;-56
2022/05/04 05:23:05;;;;;;;4.55;4.15;;;;;;;9.93;71.83;98596.88;4103691;28;20207;-56
2022/05/04 05:25:08;;;;;;;4.03;3.63;;;;;;;10.05;71.34;98594.97;4117883;28;20221;-57
2022/05/04 05:27:09;;;;;;;4.88;4.57;;;;;;;10.04;71.45;98593.31;4102417;28;20282;-56
2022/05/04 05:29:11;;;;;;;4.97;4.50;;;;;;;10.01;71.89;98593.78;4102961;28;20202;-53
2022/05/04 05:31:13;;;;;;;4.93;4.45;;;;;;;10.11;71.62;98589.38;4102527;28;20223;-54
2022/05/04 05:33:15;;;;;;;5.30;4.80;;;;;;;10.10;71.97;98592.34;4103952;28;20207;-54
2022/05/04 05:35:17;;;;;;;4.65;4.25;;;;;;;10.10;72.19;98593.19;4095048;28;20216;-56
2022/05/04 05:37:22;;;;;;;5.20;4.78;;;;;;;10.13;71.76;98592.66;4118719;28;20238;-55
2022/05/04 05:39:23;;;;;;;4.95;4.57;;;;;;;10.11;72.03;98594.00;4119522;28;20246;-56
2022/05/04 05:41:25;;;;;;;5.30;4.85;;;;;;;10.11;71.76;98588.53;4104955;28;20214;-56
2022/05/04 05:43:28;;;;;;;5.90;5.40;;;;;;;10.09;71.98;98590.69;4106135;28;20207;-55
2022/05/04 05:45:30;;;;;;;4.40;4.10;;;;;;;10.13;72.44;98597.28;4102310;28;20250;-56
2022/05/04 05:47:31;;;;;;;5.68;5.18;;;;;;;10.15;73.08;98595.97;4104068;28;20206;-55
2022/05/04 05:49:33;;;;;;;4.65;4.25;;;;;;;10.24;72.79;98593.69;4104075;28;20203;-56
2022/05/04 05:51:35;;;;;;;5.22;4.72;;;;;;;10.20;72.52;98597.97;4118558;28;20214;-55
2022/05/04 05:53:36;;;;;;;4.13;3.78;;;;;;;10.31;72.08;98594.34;4104972;28;20238;-55
2022/05/04 05:55:38;;;;;;;4.60;4.22;;;;;;;10.28;72.21;98592.13;4102237;28;20833;-56
2022/05/04 05:57:40;;;;;;;4.75;4.35;;;;;;;10.28;72.54;98592.13;4103049;28;20884;-54
2022/05/04 05:59:42;;;;;;;4.25;3.83;;;;;;;10.35;72.01;98590.06;4104998;28;20747;-56
2022/05/04 06:01:43;;;;;;;4.22;3.83;;;;;;;10.36;71.77;98597.19;4102870;28;20306;-55
2022/05/04 06:03:45;;;;;;;7.25;4.90;;;;;;;10.47;72.06;98593.56;4101835;28;20305;-58
2022/05/04 06:05:47;;;;;;;3.60;3.30;;;;;;;10.52;71.85;98599.09;4102484;28;20235;-54
2022/05/04 06:07:49;;;;;;;8.52;5.28;;;;;;;10.63;72.44;98601.78;4100695;28;20210;-55
2022/05/04 06:09:54;;;;;;;4.22;3.92;;;;;;;10.82;71.54;98587.59;4104161;28;20325;-56
2022/05/04 06:11:56;;;;;;;4.38;4.03;;;;;;;10.98;72.00;98597.69;4106344;28;20206;-55
2022/05/04 06:13:58;;;;;;;5.35;4.95;;;;;;;11.20;71.26;98595.00;4106488;28;20214;-55
2022/05/04 06:15:59;;;;;;;5.47;4.97;;;;;;;11.31;70.36;98597.63;4103071;28;20819;-56
2022/05/04 06:18:02;;;;;;;3.88;3.58;;;;;;;11.60;69.32;98593.69;4105270;28;20237;-56
2022/05/04 06:20:05;;;;;;;5.13;4.72;;;;;;;11.63;68.27;98598.66;4109907;28;20213;-55
2022/05/04 06:22:07;;;;;;;3.92;3.53;;;;;;;11.66;68.45;98592.66;4115955;28;20217;-56
2022/05/04 06:24:08;;;;;;;3.75;3.45;;;;;;;11.87;68.34;98601.97;4118108;28;20299;-55
2022/05/04 06:26:10;;;;;;;4.63;4.25;;;;;;;12.19;67.49;98598.22;4107651;28;20778;-56
2022/05/04 06:28:12;;;;;;;3.55;3.25;;;;;;;12.19;66.17;98600.97;4101321;28;20211;-57
2022/05/04 06:34:55;;;;;;;3.72;3.33;;;;;;;12.59;64.98;98601.38;4101148;28;20257;-55
2022/05/04 06:36:57;;;;;;;3.45;2.95;;;;;;;12.48;65.65;98602.34;4104188;28;20246;-53
2022/05/04 06:38:59;;;;;;;3.75;3.45;;;;;;;12.59;65.65;98600.53;4105092;28;20211;-55
2022/05/04 06:41:05;;;;;;;3.30;3.05;;;;;;;12.66;65.95;98610.22;4106226;28;20214;-56
2022/05/04 06:43:10;;;;;;;9.40;4.32;;;;;;;12.66;65.00;98610.22;4120959;28;20206;-56
2022/05/04 06:45:12;;;;;;;3.92;3.63;;;;;;;12.93;64.92;98602.75;4118409;28;21095;-53
2022/05/04 06:47:14;;;;;;;4.22;3.83;;;;;;;13.03;64.61;98608.34;4109910;28;20326;-52
2022/05/04 06:49:16;;;;;;;3.17;2.88;;;;;;;13.01;63.72;98607.78;4106124;28;20207;-53
2022/05/04 06:51:18;;;;;;;3.67;2.90;;;;;;;13.13;64.07;98608.44;4106262;28;20680;-54
2022/05/04 06:53:21;;;;;;;4.22;3.55;;;;;;;13.15;63.95;98603.50;4108423;28;20211;-53
2022/05/04 06:55:22;;;;;;;3.47;3.17;;;;;;;13.28;63.92;98610.44;4119245;28;20285;-55
2022/05/04 06:57:24;;;;;;;3.90;3.60;;;;;;;13.34;63.50;98614.88;4104124;28;20226;-53
2022/05/04 06:59:27;;;;;;;3.88;3.55;;;;;;;13.41;64.10;98605.31;4103823;28;20211;-53
2022/05/04 07:01:30;;;;;;;5.35;4.57;;;;;;;13.82;63.71;98601.66;4110022;28;20207;-53
2022/05/04 07:03:31;;;;;;;3.05;2.78;;;;;;;13.93;63.61;98614.38;4103131;28;20242;-54
2022/05/04 07:05:33;;;;;;;3.65;3.35;;;;;;;14.04;62.79;98610.56;4121134;28;20206;-55
2022/05/04 07:07:35;;;;;;;3.63;2.75;;;;;;;14.12;62.04;98612.81;4111412;28;20620;-55
2022/05/04 07:09:38;;;;;;;3.15;2.80;;;;;;;14.19;62.12;98613.41;4106962;28;20203;-54
2022/05/04 07:11:40;;;;;;;3.40;3.10;;;;;;;14.55;62.24;98612.38;4110144;28;21572;-54
2022/05/04 07:13:48;;;;;;;3.80;3.30;;;;;;;14.58;61.08;98617.31;4109732;28;20253;-56
2022/05/04 07:15:50;;;;;;;3.30;2.97;;;;;;;14.29;61.55;98618.13;4104231;28;20501;-54
2022/05/04 07:17:52;;;;;;;3.80;3.28;;;;;;;14.59;60.00;98619.00;4110248;28;20273;-55
2022/05/04 07:19:54;;;;;;;3.00;2.40;;;;;;;14.73;60.05;98614.63;4103706;28;20752;-54
2022/05/04 07:21:57;;;;;;;3.50;3.20;;;;;;;14.76;60.46;98616.81;4106256;28;20216;-54
2022/05/04 07:23:59;;;;;;;5.35;3.00;;;;;;;14.76;60.07;98613.25;4107063;28;20234;-55
2022/05/04 07:26:05;;;;;;;3.63;3.33;;;;;;;14.46;59.61;98619.53;4107204;28;20308;-54
2022/05/04 07:28:08;;;;;;;3.10;2.80;;;;;;;14.65;60.48;98611.56;4104309;28;20289;-54
2022/05/04 07:30:11;;;;;;;4.53;3.78;;;;;;;14.95;60.27;98612.41;4110757;28;21063;-54
2022/05/04 07:32:13;;;;;;;3.25;2.95;;;;;;;15.01;60.17;98616.81;4112363;28;20266;-55
2022/05/04 07:34:16;;;;;;;3.50;2.85;;;;;;;14.99;60.21;98619.03;4109684;28;20270;-53
2022/05/04 07:36:18;;;;;;;2.63;2.42;;;;;;;15.25;60.67;98615.16;4119425;28;20317;-54
2022/05/04 07:38:20;;;;;;;2.97;2.70;;;;;;;15.21;61.19;98614.06;4106837;28;20230;-55
2022/05/04 07:42:42;;;;;;;2.92;2.67;;;;;;;15.34;60.71;98618.19;4105290;28;20661;-54
2022/05/04 07:44:44;;;;;;;3.08;2.88;;;;;;;15.76;61.06;98621.44;4105819;28;20207;-56
2022/05/04 07:46:48;;;;;;;3.30;3.10;;;;;;;15.91;58.41;98613.09;4106303;28;20700;-54
2022/05/04 07:48:50;;;;;;;3.30;3.00;;;;;;;15.95;58.62;98617.75;4118343;28;20562;-53
2022/05/04 07:50:52;;;;;;;3.78;2.72;;;;;;;16.37;58.42;98622.81;4103508;28;20266;-54
2022/05/04 07:52:54;;;;;;;2.95;2.75;;;;;;;16.66;59.10;98619.06;4092197;28;20203;-55
2022/05/04 07:54:56;;;;;;;3.05;2.85;;;;;;;17.04;56.64;98620.97;4111247;28;20219;-54
2022/05/04 07:56:58;;;;;;;2.28;1.95;;;;;;;16.97;57.80;98620.50;4117511;28;20218;-53
2022/05/04 07:59:00;;;;;;;3.08;2.72;;;;;;;17.48;55.89;98621.72;4107299;28;20227;-54
2022/05/04 08:05:42;;;;;;;2.30;2.10;;;;;;;17.98;53.91;98612.88;4102592;28;20285;-57
2022/05/04 08:07:44;;;;;;;2.25;2.05;;;;;;;17.73;55.00;98618.72;4110885;28;20249;-53
2022/05/04 08:09:46;;;;;;;3.17;2.53;;;;;;;17.67;55.77;98620.72;4120857;28;20209;-52
2022/05/04 08:11:48;;;;;;;2.88;2.38;;;;;;;17.85;54.69;98628.25;4107825;28;20689;-53
2022/05/04 08:13:49;;;;;;;2.58;2.38;;;;;;;17.79;55.67;98625.84;4093478;28;20286;-53
2022/05/04 08:15:51;;;;;;;2.28;2.08;;;;;;;17.93;54.75;98624.00;4103858;28;20878;-53
2022/05/04 08:17:53;;;;;;;2.58;2.38;;;;;;;18.04;54.60;98614.47;4108677;28;20237;-53
2022/05/04 08:19:55;;;;;;;2.63;2.28;;;;;;;18.14;54.96;98619.88;4108590;28;20214;-54
2022/05/04 08:21:57;;;;;;;2.38;2.17;;;;;;;18.27;53.67;98613.63;4102996;28;20294;-55
2022/05/04 08:23:59;;;;;;;2.30;2.10;;;;;;;18.46;54.64;98622.81;4107544;28;20261;-54
2022/05/04 08:26:15;;;;;;;2.47;2.28;;;;;;;18.75;51.45;98621.56;4100036;28;20231;-54
2022/05/04 08:28:19;;;;;;;2.70;2.35;;;;;;;18.40;52.27;98624.00;4103686;28;20732;-53
2022/05/04 08:30:21;;;;;;;1.95;1.70;;;;;;;18.22;51.44;98616.44;4092606;28;20592;-55
2022/05/04 08:32:27;;;;;;;2.08;1.90;;;;;;;18.65;51.27;98623.66;4106381;28;20210;-53
2022/05/04 08:34:29;;;;;;;3.08;2.33;;;;;;;18.63;51.48;98623.94;4102609;28;20250;-53
2022/05/04 08:36:31;;;;;;;2.50;2.30;;;;;;;18.45;52.55;98626.72;4103274;28;20227;-53
2022/05/04 08:38:32;;;;;;;2.55;2.22;;;;;;;18.70;51.97;98616.06;4119181;28;20229;-55
2022/05/04 08:40:34;;;;;;;1.98;1.77;;;;;;;18.70;52.93;98623.56;4106418;28;20210;-53
2022/05/04 08:42:44;;;;;;;2.22;2.13;;;;;;;18.88;52.02;98625.50;4103943;28;20206;-55
2022/05/04 08:44:48;;;;;;;2.17;1.98;;;;;;;19.42;51.85;98634.06;4111022;28;20214;-53
2022/05/04 08:46:51;;;;;;;2.22;2.00;;;;;;;19.76;51.40;98620.66;4102200;28;20722;-53
2022/05/04 08:48:53;;;;;;;1.80;1.70;;;;;;;20.31;50.32;98627.94;4104499;28;20235;-53
2022/05/04 08:51:00;;;;;;;2.03;1.92;;;;;;;20.15;50.49;98623.81;4111860;28;20218;-55
2022/05/04 08:53:02;;;;;;;2.60;2.40;;;;;;;19.77;47.86;98625.94;4109395;28;20270;-54
2022/05/04 08:55:05;;;;;;;2.30;2.10;;;;;;;19.81;49.51;98626.13;4121143;28;20260;-53
2022/05/04 08:57:08;;;;;;;1.80;1.70;;;;;;;19.85;50.09;98621.63;4120299;28;20252;-53
2022/05/04 08:59:10;;;;;;;3.78;2.45;;;;;;;20.34;50.15;98618.97;4108523;28;20306;-53
2022/05/04 09:01:13;;;;;;;2.28;1.90;;;;;;;20.34;49.35;98616.19;4107001;28;20207;-53
2022/05/04 09:03:15;;;;;;;2.00;1.75;;;;;;;20.57;49.75;98623.47;4111357;28;20210;-53
2022/05/04 09:05:23;;;;;;;3.25;1.77;;;;;;;20.19;50.22;98611.75;4107569;28;20209;-54
2022/05/04 09:07:26;;;;;;;1.85;1.65;;;;;;;20.36;50.71;98608.34;4108738;28;20236;-53
2022/05/04 09:09:28;;;;;;;2.80;2.05;;;;;;;20.58;48.74;98612.03;4104176;28;20209;-53
2022/05/04 09:11:32;;;;;;;2.33;1.67;;;;;;;20.82;49.00;98606.19;4093934;28;20731;-54
2022/05/04 09:13:47;;;;;;;1.88;1.70;;;;;;;21.19;48.94;98617.81;4109498;28;20210;-54
2022/05/04 09:15:51;;;;;;;2.38;1.98;;;;;;;21.30;48.08;98618.41;4122859;28;20229;-53
2022/05/04 09:18:06;;;;;;;1.63;1.52;;;;;;;21.54;48.39;98613.31;4105477;28;20250;-54
2022/05/04 09:22:38;;;;;;;1.92;1.45;;;;;;;21.75;48.19;98620.03;4106235;28;20202;-54
2022/05/04 09:24:43;;;;;;;2.28;2.08;;;;;;;22.12;47.15;98613.97;4119789;28;20218;-53
2022/05/04 09:26:45;;;;;;;4.85;2.35;;;;;;;22.22;47.31;98616.47;4110372;28;20230;-54
2022/05/04 09:28:51;;;;;;;2.17;1.63;;;;;;;22.48;46.42;98606.22;4110455;28;20205;-53
2022/05/04 09:31:05;;;;;;;1.75;1.60;;;;;;;22.58;45.83;98609.53;4092681;28;20227;-54
2022/05/04 09:33:13;;;;;;;2.58;1.95;;;;;;;22.30;45.89;98605.34;4103957;28;20591;-54
2022/05/04 09:35:17;;;;;;;2.22;1.60;;;;;;;22.57;46.45;98596.72;4107058;28;20209;-53
2022/05/04 09:44:58;;;;;;;1.65;1.40;;;;;;;23.05;45.45;98605.78;4102539;28;20234;-54
2022/05/04 09:46:59;;;;;;;2.47;1.92;;;;;;;22.20;44.40;98602.03;4104053;28;21355;-52
2022/05/04 09:49:06;;;;;;;2.25;2.08;;;;;;;22.35;46.27;98601.56;4107470;28;20241;-52
2022/05/04 09:51:09;;;;;;;9.60;1.77;;;;;;;22.74;46.23;98598.72;4117429;28;20759;-53
2022/05/04 09:53:11;;;;;;;2.63;1.55;;;;;;;22.98;45.63;98594.31;4100588;28;20202;-52
2022/05/04 09:55:14;;;;;;;2.15;1.95;;;;;;;23.31;43.26;98603.84;4105578;28;20202;-53
2022/05/04 09:57:16;;;;;;;3.05;2.05;;;;;;;22.05;45.27;98602.47;4116717;28;20225;-52
2022/05/04 09:59:20;;;;;;;2.30;2.10;;;;;;;22.90;45.17;98597.13;4100734;28;20221;-52
2022/05/04 10:01:22;;;;;;;2.00;1.52;;;;;;;23.07;44.73;98597.09;4103554;28;20233;-53
2022/05/04 10:03:24;;;;;;;2.45;2.28;;;;;;;23.48;44.40;98595.44;4104682;28;20213;-53
2022/05/04 10:05:26;;;;;;;2.90;2.08;;;;;;;23.56;44.06;98591.81;4101246;28;20202;-54
2022/05/04 10:07:28;;;;;;;1.92;1.67;;;;;;;23.72;42.70;98586.50;4104682;28;20217;-52
2022/05/04 10:09:30;;;;;;;1.40;1.30;;;;;;;23.67;43.30;98595.06;4093464;28;20662;-53
2022/05/04 10:11:35;;;;;;;1.73;1.63;;;;;;;23.18;42.50;98595.66;4102278;28;21040;-54
2022/05/04 10:13:38;;;;;;;2.05;1.85;;;;;;;22.94;44.52;98598.09;4102033;28;20205;-53
2022/05/04 10:15:40;;;;;;;1.67;1.25;;;;;;;22.84;43.16;98592.84;4106240;28;20214;-52